sensor_id;sensor_type;location;lat;lon;timestamp;pressure;altitude;pressure_sealevel;temperature;humidity
82006;BME280;71529;47.484;19.064;2024-03-06T00:01:42;100247.88;;;11.08;65.83
82006;BME280;71529;47.484;19.064;2024-03-06T00:04:11;100253.06;;;11.20;65.29
82006;BME280;71529;47.484;19.064;2024-03-06T00:06:40;100259.13;;;11.12;67.62
82006;BME280;71529;47.484;19.064;2024-03-06T00:09:12;100257.00;;;11.15;69.79
82006;BME280;71529;47.484;19.064;2024-03-06T00:11:41;100254.34;;;10.96;66.78
82006;BME280;71529;47.484;19.064;2024-03-06T00:14:10;100252.38;;;10.98;67.92
82006;BME280;71529;47.484;19.064;2024-03-06T00:16:39;100253.50;;;10.96;65.33
82006;BME280;71529;47.484;19.064;2024-03-06T00:19:08;100251.38;;;10.99;67.03
82006;BME280;71529;47.484;19.064;2024-03-06T00:21:37;100252.78;;;11.03;69.81
82006;BME280;71529;47.484;19.064;2024-03-06T00:24:07;100253.34;;;10.97;70.21
82006;BME280;71529;47.484;19.064;2024-03-06T00:26:39;100257.72;;;10.89;67.72
82006;BME280;71529;47.484;19.064;2024-03-06T00:29:08;100257.16;;;10.95;67.08
82006;BME280;71529;47.484;19.064;2024-03-06T00:31:41;100257.16;;;10.95;65.29
82006;BME280;71529;47.484;19.064;2024-03-06T00:34:11;100259.41;;;10.90;66.11
82006;BME280;71529;47.484;19.064;2024-03-06T00:36:42;100265.44;;;10.82;70.32
82006;BME280;71529;47.484;19.064;2024-03-06T00:39:12;100268.97;;;11.02;67.11
82006;BME280;71529;47.484;19.064;2024-03-06T00:41:45;100273.34;;;10.93;70.04
82006;BME280;71529;47.484;19.064;2024-03-06T00:44:15;100267.16;;;10.93;71.64
82006;BME280;71529;47.484;19.064;2024-03-06T00:46:44;100267.56;;;10.79;65.74
82006;BME280;71529;47.484;19.064;2024-03-06T00:49:13;100265.75;;;10.79;70.91
82006;BME280;71529;47.484;19.064;2024-03-06T00:51:41;100265.72;;;10.89;68.78
82006;BME280;71529;47.484;19.064;2024-03-06T00:54:10;100272.78;;;10.90;71.31
82006;BME280;71529;47.484;19.064;2024-03-06T00:56:39;100265.44;;;10.82;68.53
82006;BME280;71529;47.484;19.064;2024-03-06T00:59:11;100271.75;;;10.81;66.98
82006;BME280;71529;47.484;19.064;2024-03-06T01:01:40;100270.22;;;10.79;67.17
82006;BME280;71529;47.484;19.064;2024-03-06T01:04:10;100268.41;;;10.79;65.82
82006;BME280;71529;47.484;19.064;2024-03-06T01:06:39;100275.56;;;10.88;66.78
82006;BME280;71529;47.484;19.064;2024-03-06T01:09:08;100270.78;;;10.82;67.51
82006;BME280;71529;47.484;19.064;2024-03-06T01:11:38;100271.19;;;10.78;71.13
82006;BME280;71529;47.484;19.064;2024-03-06T01:14:07;100270.94;;;10.81;70.22
82006;BME280;71529;47.484;19.064;2024-03-06T01:16:39;100265.16;;;10.76;67.25
82006;BME280;71529;47.484;19.064;2024-03-06T01:19:08;100264.19;;;10.77;70.14
82006;BME280;71529;47.484;19.064;2024-03-06T01:21:38;100267.28;;;10.72;67.40
82006;BME280;71529;47.484;19.064;2024-03-06T01:24:07;100276.25;;;10.71;68.06
82006;BME280;71529;47.484;19.064;2024-03-06T01:26:36;100266.00;;;10.86;66.73
82006;BME280;71529;47.484;19.064;2024-03-06T01:29:06;100263.47;;;10.75;67.43
82006;BME280;71529;47.484;19.064;2024-03-06T01:31:35;100269.38;;;10.69;67.39
82006;BME280;71529;47.484;19.064;2024-03-06T01:34:07;100280.31;;;10.66;71.09
82006;BME280;71529;47.484;19.064;2024-03-06T01:36:38;100276.13;;;10.63;70.24
82006;BME280;71529;47.484;19.064;2024-03-06T01:39:07;100273.97;;;10.48;69.57
82006;BME280;71529;47.484;19.064;2024-03-06T01:41:36;100276.81;;;10.65;71.36
82006;BME280;71529;47.484;19.064;2024-03-06T01:44:05;100277.50;;;10.58;68.63
82006;BME280;71529;47.484;19.064;2024-03-06T01:46:34;100274.97;;;10.56;68.40
82006;BME280;71529;47.484;19.064;2024-03-06T01:49:04;100267.50;;;10.50;69.99
82006;BME280;71529;47.484;19.064;2024-03-06T01:51:35;100267.50;;;10.41;69.64
82006;BME280;71529;47.484;19.064;2024-03-06T01:54:05;100262.59;;;10.46;68.93
82006;BME280;71529;47.484;19.064;2024-03-06T01:56:35;100268.06;;;10.44;68.23
82006;BME280;71529;47.484;19.064;2024-03-06T01:59:07;100276.31;;;10.41;68.22
82006;BME280;71529;47.484;19.064;2024-03-06T02:01:36;100278.69;;;10.35;67.90
82006;BME280;71529;47.484;19.064;2024-03-06T02:04:06;100275.69;;;10.19;69.60
82006;BME280;71529;47.484;19.064;2024-03-06T02:06:41;100279.94;;;10.21;69.14
82006;BME280;71529;47.484;19.064;2024-03-06T02:09:10;100272.94;;;10.30;69.28
82006;BME280;71529;47.484;19.064;2024-03-06T02:11:40;100282.63;;;10.31;68.51
82006;BME280;71529;47.484;19.064;2024-03-06T02:14:09;100279.50;;;10.26;71.63
82006;BME280;71529;47.484;19.064;2024-03-06T02:16:38;100284.03;;;10.25;72.40
82006;BME280;71529;47.484;19.064;2024-03-06T02:19:08;100277.53;;;10.18;69.99
82006;BME280;71529;47.484;19.064;2024-03-06T02:21:40;100267.53;;;10.20;71.06
82006;BME280;71529;47.484;19.064;2024-03-06T02:24:10;100274.88;;;10.18;71.75
82006;BME280;71529;47.484;19.064;2024-03-06T02:26:40;100274.88;;;10.28;69.75
82006;BME280;71529;47.484;19.064;2024-03-06T02:29:09;100287.94;;;10.21;69.85
82006;BME280;71529;47.484;19.064;2024-03-06T02:31:38;100283.47;;;10.22;69.30
82006;BME280;71529;47.484;19.064;2024-03-06T02:34:07;100282.75;;;10.29;68.08
82006;BME280;71529;47.484;19.064;2024-03-06T02:36:35;100281.88;;;10.19;70.93
82006;BME280;71529;47.484;19.064;2024-03-06T02:39:07;100275.41;;;10.12;70.17
82006;BME280;71529;47.484;19.064;2024-03-06T02:41:36;100287.38;;;10.18;73.99
82006;BME280;71529;47.484;19.064;2024-03-06T02:44:05;100280.66;;;10.23;71.33
82006;BME280;71529;47.484;19.064;2024-03-06T02:46:34;100284.25;;;10.13;69.09
82006;BME280;71529;47.484;19.064;2024-03-06T02:49:03;100286.34;;;10.09;70.56
82006;BME280;71529;47.484;19.064;2024-03-06T02:51:32;100290.16;;;9.95;72.72
82006;BME280;71529;47.484;19.064;2024-03-06T02:54:02;100278.53;;;9.96;73.45
82006;BME280;71529;47.484;19.064;2024-03-06T02:56:33;100288.50;;;9.94;69.61
82006;BME280;71529;47.484;19.064;2024-03-06T02:59:02;100287.91;;;9.91;69.56
82006;BME280;71529;47.484;19.064;2024-03-06T03:01:31;100292.81;;;9.86;71.34
82006;BME280;71529;47.484;19.064;2024-03-06T03:04:00;100287.59;;;9.84;70.73
82006;BME280;71529;47.484;19.064;2024-03-06T03:06:29;100283.94;;;9.85;75.49
82006;BME280;71529;47.484;19.064;2024-03-06T03:08:58;100281.78;;;10.00;70.86
82006;BME280;71529;47.484;19.064;2024-03-06T03:11:27;100290.28;;;9.84;69.05
82006;BME280;71529;47.484;19.064;2024-03-06T03:13:58;100281.00;;;9.88;73.21
82006;BME280;71529;47.484;19.064;2024-03-06T03:16:27;100280.03;;;9.89;72.12
82006;BME280;71529;47.484;19.064;2024-03-06T03:18:58;100291.09;;;9.85;72.36
82006;BME280;71529;47.484;19.064;2024-03-06T03:21:26;100290.28;;;9.84;72.59
82006;BME280;71529;47.484;19.064;2024-03-06T03:23:55;100289.19;;;9.66;73.46
82006;BME280;71529;47.484;19.064;2024-03-06T03:26:24;100292.28;;;9.71;72.99
82006;BME280;71529;47.484;19.064;2024-03-06T03:28:53;100297.34;;;9.74;72.99
82006;BME280;71529;47.484;19.064;2024-03-06T03:31:24;100297.25;;;9.76;71.30
82006;BME280;71529;47.484;19.064;2024-03-06T03:33:52;100300.03;;;9.74;72.58
82006;BME280;71529;47.484;19.064;2024-03-06T03:36:21;100295.81;;;9.72;71.36
82006;BME280;71529;47.484;19.064;2024-03-06T03:38:50;100304.44;;;9.85;73.86
82006;BME280;71529;47.484;19.064;2024-03-06T03:41:20;100300.59;;;9.98;74.37
82006;BME280;71529;47.484;19.064;2024-03-06T03:43:49;100306.44;;;9.92;69.49
82006;BME280;71529;47.484;19.064;2024-03-06T03:46:18;100306.06;;;9.76;69.35
82006;BME280;71529;47.484;19.064;2024-03-06T03:48:49;100316.72;;;9.67;69.02
82006;BME280;71529;47.484;19.064;2024-03-06T03:51:19;100317.84;;;9.53;69.10
82006;BME280;71529;47.484;19.064;2024-03-06T03:53:47;100316.44;;;9.49;69.67
82006;BME280;71529;47.484;19.064;2024-03-06T03:56:19;100316.91;;;9.54;72.63
82006;BME280;71529;47.484;19.064;2024-03-06T03:58:48;100312.78;;;9.50;70.57
82006;BME280;71529;47.484;19.064;2024-03-06T04:01:17;100312.34;;;9.66;74.34
82006;BME280;71529;47.484;19.064;2024-03-06T04:03:49;100318.84;;;9.73;72.27
82006;BME280;71529;47.484;19.064;2024-03-06T04:06:18;100323.91;;;9.55;69.06
82006;BME280;71529;47.484;19.064;2024-03-06T04:08:47;100326.34;;;9.58;71.75
82006;BME280;71529;47.484;19.064;2024-03-06T04:11:17;100329.47;;;9.63;75.17
82006;BME280;71529;47.484;19.064;2024-03-06T04:13:46;100326.06;;;9.61;69.86
82006;BME280;71529;47.484;19.064;2024-03-06T04:16:16;100324.94;;;9.64;72.70
82006;BME280;71529;47.484;19.064;2024-03-06T04:18:49;100333.34;;;9.59;73.17
82006;BME280;71529;47.484;19.064;2024-03-06T04:21:18;100330.56;;;9.61;72.19
82006;BME280;71529;47.484;19.064;2024-03-06T04:23:48;100329.59;;;9.62;69.70
82006;BME280;71529;47.484;19.064;2024-03-06T04:26:17;100333.16;;;9.51;71.64
82006;BME280;71529;47.484;19.064;2024-03-06T04:28:46;100337.69;;;9.60;71.31
82006;BME280;71529;47.484;19.064;2024-03-06T04:31:15;100340.03;;;9.54;72.48
82006;BME280;71529;47.484;19.064;2024-03-06T04:33:43;100339.28;;;9.42;72.74
82006;BME280;71529;47.484;19.064;2024-03-06T04:36:15;100346.84;;;9.26;70.88
82006;BME280;71529;47.484;19.064;2024-03-06T04:38:44;100344.31;;;9.25;75.59
82006;BME280;71529;47.484;19.064;2024-03-06T04:41:13;100347.63;;;9.38;75.80
82006;BME280;71529;47.484;19.064;2024-03-06T04:43:42;100352.84;;;9.39;75.07
82006;BME280;71529;47.484;19.064;2024-03-06T04:46:12;100359.63;;;9.43;73.09
82006;BME280;71529;47.484;19.064;2024-03-06T04:48:42;100355.13;;;9.44;75.91
82006;BME280;71529;47.484;19.064;2024-03-06T04:51:15;100359.03;;;9.40;73.76
82006;BME280;71529;47.484;19.064;2024-03-06T04:53:45;100357.34;;;9.39;73.83
82006;BME280;71529;47.484;19.064;2024-03-06T04:56:14;100355.72;;;9.27;72.05
82006;BME280;71529;47.484;19.064;2024-03-06T04:58:45;100359.59;;;9.23;71.20
82006;BME280;71529;47.484;19.064;2024-03-06T05:01:13;100365.66;;;9.14;70.76
82006;BME280;71529;47.484;19.064;2024-03-06T05:03:42;100365.78;;;9.23;73.30
82006;BME280;71529;47.484;19.064;2024-03-06T05:06:11;100361.78;;;9.18;70.88
82006;BME280;71529;47.484;19.064;2024-03-06T05:08:42;100356.69;;;9.15;73.07
82006;BME280;71529;47.484;19.064;2024-03-06T05:11:11;100363.13;;;9.12;74.27
82006;BME280;71529;47.484;19.064;2024-03-06T05:13:40;100367.13;;;9.18;74.95
82006;BME280;71529;47.484;19.064;2024-03-06T05:16:08;100363.41;;;9.09;72.47
82006;BME280;71529;47.484;19.064;2024-03-06T05:18:38;100356.16;;;9.00;73.78
82006;BME280;71529;47.484;19.064;2024-03-06T05:21:07;100364.00;;;9.13;72.85
82006;BME280;71529;47.484;19.064;2024-03-06T05:23:36;100358.06;;;9.09;74.29
82006;BME280;71529;47.484;19.064;2024-03-06T05:26:08;100364.09;;;9.11;75.17
82006;BME280;71529;47.484;19.064;2024-03-06T05:28:37;100361.53;;;9.21;75.72
82006;BME280;71529;47.484;19.064;2024-03-06T05:31:16;100362.00;;;9.26;73.68
82006;BME280;71529;47.484;19.064;2024-03-06T05:33:47;100359.28;;;9.05;73.78
82006;BME280;71529;47.484;19.064;2024-03-06T05:36:17;100366.28;;;9.06;74.29
82006;BME280;71529;47.484;19.064;2024-03-06T05:38:46;100371.63;;;9.06;74.29
82006;BME280;71529;47.484;19.064;2024-03-06T05:41:19;100364.22;;;9.10;73.27
82006;BME280;71529;47.484;19.064;2024-03-06T05:43:47;100367.28;;;9.05;72.61
82006;BME280;71529;47.484;19.064;2024-03-06T05:46:16;100372.59;;;9.05;73.17
82006;BME280;71529;47.484;19.064;2024-03-06T05:48:45;100366.16;;;9.08;74.12
82006;BME280;71529;47.484;19.064;2024-03-06T05:51:14;100368.72;;;9.09;76.29
82006;BME280;71529;47.484;19.064;2024-03-06T05:53:43;100372.28;;;8.87;70.47
82006;BME280;71529;47.484;19.064;2024-03-06T05:56:12;100385.50;;;8.78;72.93
82006;BME280;71529;47.484;19.064;2024-03-06T05:58:45;100386.34;;;8.89;71.96
82006;BME280;71529;47.484;19.064;2024-03-06T06:01:15;100391.06;;;8.86;74.14
82006;BME280;71529;47.484;19.064;2024-03-06T06:03:46;100388.72;;;9.04;76.46
82006;BME280;71529;47.484;19.064;2024-03-06T06:06:15;100396.94;;;9.01;70.71
82006;BME280;71529;47.484;19.064;2024-03-06T06:08:45;100398.16;;;9.08;74.68
82006;BME280;71529;47.484;19.064;2024-03-06T06:11:14;100396.28;;;8.87;71.91
82006;BME280;71529;47.484;19.064;2024-03-06T06:13:45;100400.41;;;8.80;70.84
82006;BME280;71529;47.484;19.064;2024-03-06T06:16:14;100400.88;;;8.74;71.34
82006;BME280;71529;47.484;19.064;2024-03-06T06:18:43;100398.94;;;8.76;71.36
82006;BME280;71529;47.484;19.064;2024-03-06T06:21:12;100395.75;;;8.93;76.40
82006;BME280;71529;47.484;19.064;2024-03-06T06:23:42;100392.13;;;9.06;72.68
82006;BME280;71529;47.484;19.064;2024-03-06T06:26:11;100397.31;;;9.07;73.22
82006;BME280;71529;47.484;19.064;2024-03-06T06:28:40;100393.78;;;9.18;76.30
82006;BME280;71529;47.484;19.064;2024-03-06T06:31:12;100396.06;;;9.22;73.82
82006;BME280;71529;47.484;19.064;2024-03-06T06:33:41;100397.38;;;9.28;74.74
82006;BME280;71529;47.484;19.064;2024-03-06T06:36:12;100396.38;;;9.29;73.49
82006;BME280;71529;47.484;19.064;2024-03-06T06:38:41;100399.28;;;9.37;72.42
82006;BME280;71529;47.484;19.064;2024-03-06T06:41:10;100392.84;;;9.39;74.48
82006;BME280;71529;47.484;19.064;2024-03-06T06:43:39;100394.56;;;9.29;70.38
82006;BME280;71529;47.484;19.064;2024-03-06T06:46:08;100400.03;;;9.28;75.03
82006;BME280;71529;47.484;19.064;2024-03-06T06:48:40;100408.38;;;9.34;73.07
82006;BME280;71529;47.484;19.064;2024-03-06T06:51:09;100411.16;;;9.33;74.77
82006;BME280;71529;47.484;19.064;2024-03-06T06:53:39;100406.06;;;9.41;73.50
82006;BME280;71529;47.484;19.064;2024-03-06T06:56:08;100415.03;;;9.40;71.19
82006;BME280;71529;47.484;19.064;2024-03-06T06:58:37;100413.06;;;9.42;71.57
82006;BME280;71529;47.484;19.064;2024-03-06T07:01:09;100405.50;;;9.58;75.60
82006;BME280;71529;47.484;19.064;2024-03-06T07:03:41;100410.25;;;9.54;74.02
82006;BME280;71529;47.484;19.064;2024-03-06T07:06:10;100419.47;;;9.71;75.06
82006;BME280;71529;47.484;19.064;2024-03-06T07:08:39;100410.41;;;9.73;72.86
82006;BME280;71529;47.484;19.064;2024-03-06T07:11:08;100410.72;;;9.80;74.52
82006;BME280;71529;47.484;19.064;2024-03-06T07:13:37;100411.56;;;9.80;74.92
82006;BME280;71529;47.484;19.064;2024-03-06T07:16:06;100411.66;;;9.90;70.30
82006;BME280;71529;47.484;19.064;2024-03-06T07:18:35;100405.97;;;9.83;70.77
82006;BME280;71529;47.484;19.064;2024-03-06T07:21:06;100402.53;;;9.92;73.34
82006;BME280;71529;47.484;19.064;2024-03-06T07:23:35;100408.31;;;9.97;74.34
82006;BME280;71529;47.484;19.064;2024-03-06T07:26:04;100410.03;;;9.98;73.88
82006;BME280;71529;47.484;19.064;2024-03-06T07:28:33;100407.50;;;9.97;70.53
82006;BME280;71529;47.484;19.064;2024-03-06T07:31:03;100410.53;;;9.92;69.49
82006;BME280;71529;47.484;19.064;2024-03-06T07:33:32;100416.31;;;9.97;70.98
82006;BME280;71529;47.484;19.064;2024-03-06T07:36:07;100415.66;;;10.05;70.36
82006;BME280;71529;47.484;19.064;2024-03-06T07:38:37;100415.94;;;10.02;68.17
82006;BME280;71529;47.484;19.064;2024-03-06T07:41:07;100421.00;;;10.05;69.22
82006;BME280;71529;47.484;19.064;2024-03-06T07:43:36;100422.59;;;10.07;69.64
82006;BME280;71529;47.484;19.064;2024-03-06T07:46:06;100421.94;;;10.15;70.25
82006;BME280;71529;47.484;19.064;2024-03-06T07:48:36;100424.97;;;10.22;70.32
82006;BME280;71529;47.484;19.064;2024-03-06T07:51:08;100420.97;;;10.16;67.55
82006;BME280;71529;47.484;19.064;2024-03-06T07:53:36;100419.28;;;10.15;68.07
82006;BME280;71529;47.484;19.064;2024-03-06T07:56:10;100423.25;;;10.21;68.44
82006;BME280;71529;47.484;19.064;2024-03-06T07:58:39;100431.06;;;10.33;68.00
82006;BME280;71529;47.484;19.064;2024-03-06T08:01:08;100418.72;;;10.42;67.52
82006;BME280;71529;47.484;19.064;2024-03-06T08:03:39;100424.66;;;10.45;66.27
82006;BME280;71529;47.484;19.064;2024-03-06T08:06:11;100427.91;;;10.49;65.95
82006;BME280;71529;47.484;19.064;2024-03-06T08:08:41;100423.41;;;10.49;65.68
82006;BME280;71529;47.484;19.064;2024-03-06T08:11:10;100436.50;;;10.52;66.65
82006;BME280;71529;47.484;19.064;2024-03-06T08:13:39;100441.19;;;10.60;66.09
82006;BME280;71529;47.484;19.064;2024-03-06T08:16:08;100444.56;;;10.62;65.17
82006;BME280;71529;47.484;19.064;2024-03-06T08:18:36;100431.88;;;10.64;65.73
82006;BME280;71529;47.484;19.064;2024-03-06T08:21:05;100439.53;;;10.68;65.20
82006;BME280;71529;47.484;19.064;2024-03-06T08:23:37;100439.81;;;10.75;67.28
82006;BME280;71529;47.484;19.064;2024-03-06T08:26:06;100440.09;;;10.72;65.10
82006;BME280;71529;47.484;19.064;2024-03-06T08:28:35;100436.72;;;10.70;64.66
82006;BME280;71529;47.484;19.064;2024-03-06T08:31:04;100436.03;;;10.77;64.42
82006;BME280;71529;47.484;19.064;2024-03-06T08:33:34;100433.75;;;10.73;64.88
82006;BME280;71529;47.484;19.064;2024-03-06T08:36:03;100433.09;;;10.80;65.12
82006;BME280;71529;47.484;19.064;2024-03-06T08:38:32;100436.88;;;10.78;64.19
82006;BME280;71529;47.484;19.064;2024-03-06T08:41:04;100430.84;;;10.85;67.42
82006;BME280;71529;47.484;19.064;2024-03-06T08:43:33;100438.88;;;10.85;64.58
82006;BME280;71529;47.484;19.064;2024-03-06T08:46:02;100432.56;;;10.86;64.45
82006;BME280;71529;47.484;19.064;2024-03-06T08:48:31;100435.81;;;10.99;65.49
82006;BME280;71529;47.484;19.064;2024-03-06T08:51:00;100440.22;;;11.00;63.76
82006;BME280;71529;47.484;19.064;2024-03-06T08:53:36;100437.25;;;11.03;63.19
82006;BME280;71529;47.484;19.064;2024-03-06T08:56:08;100440.34;;;11.08;64.96
82006;BME280;71529;47.484;19.064;2024-03-06T08:58:37;100433.63;;;11.14;63.55
82006;BME280;71529;47.484;19.064;2024-03-06T09:01:07;100434.91;;;11.20;62.69
82006;BME280;71529;47.484;19.064;2024-03-06T09:03:35;100433.19;;;11.18;62.69
82006;BME280;71529;47.484;19.064;2024-03-06T09:06:04;100439.84;;;11.24;62.62
82006;BME280;71529;47.484;19.064;2024-03-06T09:08:33;100435.47;;;11.23;61.79
82006;BME280;71529;47.484;19.064;2024-03-06T09:11:02;100436.72;;;11.19;61.69
82006;BME280;71529;47.484;19.064;2024-03-06T09:13:33;100434.91;;;11.20;62.33
82006;BME280;71529;47.484;19.064;2024-03-06T09:16:03;100429.31;;;11.32;61.51
82006;BME280;71529;47.484;19.064;2024-03-06T09:18:32;100435.75;;;11.30;61.55
82006;BME280;71529;47.484;19.064;2024-03-06T09:21:02;100433.22;;;11.38;62.65
82006;BME280;71529;47.484;19.064;2024-03-06T09:23:31;100436.38;;;11.43;63.07
82006;BME280;71529;47.484;19.064;2024-03-06T09:26:00;100427.91;;;11.47;65.08
82006;BME280;71529;47.484;19.064;2024-03-06T09:28:28;100422.56;;;11.57;65.21
82006;BME280;71529;47.484;19.064;2024-03-06T09:31:00;100421.44;;;11.59;61.50
82006;BME280;71529;47.484;19.064;2024-03-06T09:33:28;100418.34;;;11.64;67.38
82006;BME280;71529;47.484;19.064;2024-03-06T09:35:57;100416.78;;;11.61;64.41
82006;BME280;71529;47.484;19.064;2024-03-06T09:38:26;100417.81;;;11.70;63.96
82006;BME280;71529;47.484;19.064;2024-03-06T09:40:56;100416.25;;;11.77;62.12
82006;BME280;71529;47.484;19.064;2024-03-06T09:43:24;100418.78;;;11.78;64.51
82006;BME280;71529;47.484;19.064;2024-03-06T09:45:54;100411.59;;;11.79;63.19
82006;BME280;71529;47.484;19.064;2024-03-06T09:48:30;100421.75;;;11.85;62.60
82006;BME280;71529;47.484;19.064;2024-03-06T09:51:01;100416.97;;;11.88;63.49
82006;BME280;71529;47.484;19.064;2024-03-06T09:53:30;100414.41;;;11.87;62.54
82006;BME280;71529;47.484;19.064;2024-03-06T09:55:59;100416.25;;;11.86;62.10
82006;BME280;71529;47.484;19.064;2024-03-06T09:58:29;100417.06;;;11.87;63.20
82006;BME280;71529;47.484;19.064;2024-03-06T10:00:59;100413.69;;;11.94;60.78
82006;BME280;71529;47.484;19.064;2024-03-06T10:03:33;100407.38;;;11.95;62.15
82006;BME280;71529;47.484;19.064;2024-03-06T10:06:02;100412.44;;;11.98;63.22
82006;BME280;71529;47.484;19.064;2024-03-06T10:08:31;100410.47;;;12.00;63.68
82006;BME280;71529;47.484;19.064;2024-03-06T10:11:00;100406.22;;;11.98;64.01
82006;BME280;71529;47.484;19.064;2024-03-06T10:13:29;100404.78;;;12.13;62.04
82006;BME280;71529;47.484;19.064;2024-03-06T10:16:00;100410.88;;;12.05;63.26
82006;BME280;71529;47.484;19.064;2024-03-06T10:18:33;100407.34;;;12.05;63.63
82006;BME280;71529;47.484;19.064;2024-03-06T10:21:02;100409.72;;;12.08;64.03
82006;BME280;71529;47.484;19.064;2024-03-06T10:23:31;100404.66;;;12.14;62.23
82006;BME280;71529;47.484;19.064;2024-03-06T10:26:00;100405.47;;;12.24;63.46
82006;BME280;71529;47.484;19.064;2024-03-06T10:28:29;100416.19;;;12.24;62.42
82006;BME280;71529;47.484;19.064;2024-03-06T10:31:03;100398.00;;;12.28;61.87
82006;BME280;71529;47.484;19.064;2024-03-06T10:33:37;100396.72;;;12.32;62.86
82006;BME280;71529;47.484;19.064;2024-03-06T10:36:10;100408.81;;;12.36;62.29
82006;BME280;71529;47.484;19.064;2024-03-06T10:38:41;100394.44;;;12.37;63.72
82006;BME280;71529;47.484;19.064;2024-03-06T10:41:14;100383.88;;;12.36;63.38
82006;BME280;71529;47.484;19.064;2024-03-06T10:43:44;100396.66;;;12.42;64.45
82006;BME280;71529;47.484;19.064;2024-03-06T10:46:19;100380.03;;;12.38;62.90
82006;BME280;71529;47.484;19.064;2024-03-06T10:48:52;100386.81;;;12.42;63.79
82006;BME280;71529;47.484;19.064;2024-03-06T10:51:25;100377.34;;;12.48;63.49
82006;BME280;71529;47.484;19.064;2024-03-06T10:53:57;100376.19;;;12.50;63.29
82006;BME280;71529;47.484;19.064;2024-03-06T10:56:26;100376.19;;;12.50;64.40
82006;BME280;71529;47.484;19.064;2024-03-06T10:58:57;100365.31;;;12.52;64.99
82006;BME280;71529;47.484;19.064;2024-03-06T11:01:28;100367.56;;;12.56;63.70
82006;BME280;71529;47.484;19.064;2024-03-06T11:04:02;100363.72;;;12.59;64.63
82006;BME280;71529;47.484;19.064;2024-03-06T11:06:32;100366.97;;;12.62;63.55
82006;BME280;71529;47.484;19.064;2024-03-06T11:09:01;100364.00;;;12.65;64.31
82006;BME280;71529;47.484;19.064;2024-03-06T11:11:32;100355.34;;;12.71;63.43
82006;BME280;71529;47.484;19.064;2024-03-06T11:14:01;100354.53;;;12.71;64.55
82006;BME280;71529;47.484;19.064;2024-03-06T11:17:03;100348.00;;;12.73;63.81
82006;BME280;71529;47.484;19.064;2024-03-06T11:20:12;100339.22;;;12.81;63.26
82006;BME280;71529;47.484;19.064;2024-03-06T11:23:09;100334.72;;;12.81;64.00
82006;BME280;71529;47.484;19.064;2024-03-06T11:25:56;100326.28;;;12.94;60.17
82006;BME280;71529;47.484;19.064;2024-03-06T11:28:29;100334.75;;;12.99;58.98
82006;BME280;71529;47.484;19.064;2024-03-06T11:31:00;100337.56;;;12.97;59.98
82006;BME280;71529;47.484;19.064;2024-03-06T11:33:36;100326.00;;;12.97;61.16
82006;BME280;71529;47.484;19.064;2024-03-06T11:36:18;100321.78;;;12.94;61.12
82006;BME280;71529;47.484;19.064;2024-03-06T11:38:51;100321.47;;;12.97;61.07
82006;BME280;71529;47.484;19.064;2024-03-06T11:41:22;100328.53;;;12.98;63.15
82006;BME280;71529;47.484;19.064;2024-03-06T11:43:53;100329.22;;;13.00;61.93
82006;BME280;71529;47.484;19.064;2024-03-06T11:46:22;100316.22;;;13.05;61.80
82006;BME280;71529;47.484;19.064;2024-03-06T11:48:53;100316.06;;;13.07;61.95
82006;BME280;71529;47.484;19.064;2024-03-06T11:51:27;100317.31;;;13.12;60.53
82006;BME280;71529;47.484;19.064;2024-03-06T11:53:56;100315.31;;;13.14;60.99
82006;BME280;71529;47.484;19.064;2024-03-06T11:56:25;100311.63;;;13.15;61.45
82006;BME280;71529;47.484;19.064;2024-03-06T11:58:54;100313.19;;;13.18;59.33
82006;BME280;71529;47.484;19.064;2024-03-06T12:01:23;100312.38;;;13.25;60.34
82006;BME280;71529;47.484;19.064;2024-03-06T12:03:53;100305.03;;;13.27;61.36
82006;BME280;71529;47.484;19.064;2024-03-06T12:06:23;100303.38;;;13.26;60.94
82006;BME280;71529;47.484;19.064;2024-03-06T12:08:55;100302.50;;;13.26;61.71
82006;BME280;71529;47.484;19.064;2024-03-06T12:11:25;100303.53;;;13.25;59.34
82006;BME280;71529;47.484;19.064;2024-03-06T12:13:54;100296.28;;;13.25;61.51
82006;BME280;71529;47.484;19.064;2024-03-06T12:16:24;100301.28;;;13.20;61.24
82006;BME280;71529;47.484;19.064;2024-03-06T12:18:56;100295.91;;;13.20;62.95
82006;BME280;71529;47.484;19.064;2024-03-06T12:21:27;100302.28;;;13.19;62.43
82006;BME280;71529;47.484;19.064;2024-03-06T12:24:07;100300.31;;;13.21;61.46
82006;BME280;71529;47.484;19.064;2024-03-06T12:26:37;100298.06;;;13.17;62.60
82006;BME280;71529;47.484;19.064;2024-03-06T12:29:07;100288.72;;;13.21;61.65
82006;BME280;71529;47.484;19.064;2024-03-06T12:31:38;100295.91;;;13.20;62.85
82006;BME280;71529;47.484;19.064;2024-03-06T12:34:08;100297.47;;;13.23;61.98
82006;BME280;71529;47.484;19.064;2024-03-06T12:36:37;100284.91;;;13.23;61.48
82006;BME280;71529;47.484;19.064;2024-03-06T12:39:08;100288.56;;;13.22;62.15
82006;BME280;71529;47.484;19.064;2024-03-06T12:41:38;100287.72;;;13.22;62.03
82006;BME280;71529;47.484;19.064;2024-03-06T12:44:08;100287.88;;;13.20;62.40
82006;BME280;71529;47.484;19.064;2024-03-06T12:46:37;100285.03;;;13.22;61.71
82006;BME280;71529;47.484;19.064;2024-03-06T12:49:06;100276.97;;;13.22;64.26
82006;BME280;71529;47.484;19.064;2024-03-06T12:51:36;100280.66;;;13.21;62.67
82006;BME280;71529;47.484;19.064;2024-03-06T12:54:09;100282.66;;;13.19;63.16
82006;BME280;71529;47.484;19.064;2024-03-06T12:56:38;100280.66;;;13.21;62.74
82006;BME280;71529;47.484;19.064;2024-03-06T12:59:07;100282.34;;;13.22;64.15